Time;durP1;ratioP1;P1;durP2;ratioP2;P2;SDS_P1;SDS_P2;PMS_P1;PMS_P2;Temp;Humidity;BMP_temperature;BMP_pressure;BME280_temperature;BME280_humidity;BME280_pressure;Samples;Min_cycle;Max_cycle;Signal;HPM_P1;HPM_P2
2022/11/09 00:02:11;;;;;;;;;;;14.20;99.80;;;;;;5059151;28;20380;-59
2022/11/09 00:04:37;;;;;;;;;;;14.10;99.90;;;;;;5059312;28;19980;-59
2022/11/09 00:07:03;;;;;;;;;;;14.00;99.70;;;;;;5058924;28;19913;-59
2022/11/09 00:09:28;;;;;;;;;;;14.00;99.80;;;;;;5059014;28;19928;-58
2022/11/09 00:11:54;;;;;;;;;;;13.90;99.70;;;;;;5058910;28;19977;-59
2022/11/09 00:14:19;;;;;;;;;;;13.90;99.60;;;;;;5059057;28;19908;-59
2022/11/09 00:16:45;;;;;;;;;;;13.90;99.90;;;;;;5058884;28;20319;-59
2022/11/09 00:19:12;;;;;;;;;;;13.80;99.90;;;;;;5059102;28;19912;-59
2022/11/09 00:21:37;;;;;;;;;;;13.90;99.90;;;;;;5058656;28;19916;-59
2022/11/09 00:24:03;;;;;;;;;;;13.80;99.90;;;;;;5058759;28;19909;-59
2022/11/09 00:26:29;;;;;;;;;;;13.80;99.90;;;;;;5058617;28;20283;-58
2022/11/09 00:28:54;;;;;;;;;;;13.80;99.90;;;;;;5058599;28;19915;-59
2022/11/09 00:31:21;;;;;;;;;;;13.90;99.90;;;;;;5058601;28;19917;-59
2022/11/09 00:33:50;;;;;;;;;;;13.90;99.90;;;;;;5058583;28;20308;-59
2022/11/09 00:36:16;;;;;;;;;;;13.90;99.90;;;;;;5058349;28;19916;-59
2022/11/09 00:38:47;;;;;;;;;;;13.80;99.90;;;;;;5058666;28;19908;-59
2022/11/09 00:41:12;;;;;;;;;;;13.90;99.90;;;;;;5058326;28;19999;-59
2022/11/09 00:43:38;;;;;;;;;;;13.90;99.90;;;;;;5058185;28;19943;-59
2022/11/09 00:46:04;;;;;;;;;;;13.90;99.90;;;;;;5058558;28;19995;-59
2022/11/09 00:48:29;;;;;;;;;;;13.90;99.90;;;;;;5058307;28;19916;-60
2022/11/09 00:50:55;;;;;;;;;;;13.90;99.90;;;;;;5057190;28;19958;-59
2022/11/09 00:53:22;;;;;;;;;;;14.00;99.90;;;;;;5058486;28;19913;-60
2022/11/09 00:55:55;;;;;;;;;;;13.90;99.00;;;;;;5058183;28;19924;-59
2022/11/09 00:58:20;;;;;;;;;;;13.70;99.90;;;;;;5058133;28;19909;-59
2022/11/09 01:00:46;;;;;;;;;;;13.70;99.90;;;;;;5058294;28;20427;-59
2022/11/09 01:03:11;;;;;;;;;;;13.60;99.90;;;;;;5058526;28;20315;-59
2022/11/09 01:05:40;;;;;;;;;;;13.60;99.90;;;;;;5058030;28;19910;-59
2022/11/09 01:08:06;;;;;;;;;;;13.60;99.90;;;;;;5057919;28;19920;-59
2022/11/09 01:10:31;;;;;;;;;;;13.60;99.90;;;;;;5057584;28;19921;-59
2022/11/09 01:12:57;;;;;;;;;;;13.60;99.90;;;;;;5058597;28;19909;-59
2022/11/09 01:15:23;;;;;;;;;;;13.70;99.90;;;;;;5057948;28;19909;-59
2022/11/09 01:17:48;;;;;;;;;;;13.70;99.90;;;;;;5058244;28;19915;-59
2022/11/09 01:20:15;;;;;;;;;;;13.80;99.90;;;;;;5058034;28;19916;-59
2022/11/09 01:22:40;;;;;;;;;;;13.80;99.90;;;;;;5057828;28;19909;-59
2022/11/09 01:25:07;;;;;;;;;;;13.80;99.90;;;;;;5058012;28;19916;-59
2022/11/09 01:27:33;;;;;;;;;;;13.80;99.90;;;;;;5057574;28;19917;-59
2022/11/09 01:29:58;;;;;;;;;;;13.80;99.90;;;;;;5057994;28;19909;-59
2022/11/09 01:32:24;;;;;;;;;;;13.80;99.90;;;;;;5057613;28;19909;-59
2022/11/09 01:34:49;;;;;;;;;;;13.80;99.90;;;;;;5057938;28;19908;-59
2022/11/09 01:37:15;;;;;;;;;;;13.80;99.90;;;;;;5057670;28;19913;-59
2022/11/09 01:39:41;;;;;;;;;;;13.80;99.90;;;;;;5057629;28;19953;-59
2022/11/09 01:42:06;;;;;;;;;;;13.80;99.90;;;;;;5058038;28;20263;-59
2022/11/09 01:44:34;;;;;;;;;;;13.80;99.90;;;;;;5057597;28;19916;-59
2022/11/09 01:47:01;;;;;;;;;;;13.90;99.90;;;;;;5057597;28;19912;-59
2022/11/09 01:49:39;;;;;;;;;;;13.80;99.90;;;;;;5057507;28;20014;-59
2022/11/09 01:52:10;;;;;;;;;;;13.90;99.90;;;;;;5057556;28;19909;-59
2022/11/09 01:54:38;;;;;;;;;;;13.90;99.90;;;;;;5057664;28;19909;-59
2022/11/09 01:57:08;;;;;;;;;;;13.90;99.90;;;;;;5057641;28;20379;-59
2022/11/09 01:59:35;;;;;;;;;;;13.90;99.90;;;;;;5057739;28;19909;-59
2022/11/09 02:02:01;;;;;;;;;;;13.90;99.90;;;;;;5058411;28;19909;-59
2022/11/09 02:04:32;;;;;;;;;;;13.90;99.90;;;;;;5061536;28;19915;-59
2022/11/09 02:06:58;;;;;;;;;;;13.90;99.90;;;;;;5061507;28;19912;-59
2022/11/09 02:09:35;;;;;;;;;;;13.90;99.90;;;;;;5061173;28;19921;-59
2022/11/09 02:12:01;;;;;;;;;;;13.90;99.90;;;;;;5061559;28;19923;-59
2022/11/09 02:14:26;;;;;;;;;;;13.90;99.90;;;;;;5061531;28;19976;-59
2022/11/09 02:16:52;;;;;;;;;;;13.90;99.90;;;;;;5061328;28;19951;-59
2022/11/09 02:19:18;;;;;;;;;;;13.80;99.90;;;;;;5061356;28;19908;-59
2022/11/09 02:21:43;;;;;;;;;;;13.80;99.90;;;;;;5061065;28;19920;-59
2022/11/09 02:24:10;;;;;;;;;;;13.80;99.90;;;;;;5061065;28;19916;-59
2022/11/09 02:26:49;;;;;;;;;;;13.80;99.90;;;;;;5060868;28;19915;-59
2022/11/09 02:29:17;;;;;;;;;;;13.80;99.90;;;;;;5061285;28;19920;-59
2022/11/09 02:31:48;;;;;;;;;;;13.80;99.90;;;;;;5061109;28;19909;-59
2022/11/09 02:34:15;;;;;;;;;;;13.80;99.90;;;;;;5061335;28;19962;-59
2022/11/09 02:36:42;;;;;;;;;;;13.80;99.90;;;;;;5060766;28;19915;-59
2022/11/09 02:39:08;;;;;;;;;;;13.80;99.90;;;;;;5060825;28;19909;-59
2022/11/09 02:41:36;;;;;;;;;;;13.90;99.90;;;;;;5060904;28;19909;-59
2022/11/09 02:44:02;;;;;;;;;;;13.90;99.90;;;;;;5060698;28;19916;-59
2022/11/09 02:46:32;;;;;;;;;;;13.80;99.90;;;;;;5060984;28;19908;-59
2022/11/09 02:48:58;;;;;;;;;;;13.90;99.90;;;;;;5060601;28;19913;-59
2022/11/09 02:51:24;;;;;;;;;;;13.90;99.90;;;;;;5060464;28;19909;-59
2022/11/09 02:53:49;;;;;;;;;;;13.90;99.90;;;;;;5060799;28;20261;-59
2022/11/09 02:56:15;;;;;;;;;;;13.90;99.90;;;;;;5060364;28;20435;-59
2022/11/09 02:58:41;;;;;;;;;;;13.90;99.90;;;;;;5060708;28;19943;-59
2022/11/09 03:01:06;;;;;;;;;;;13.90;99.90;;;;;;5060539;28;19940;-59
2022/11/09 03:03:32;;;;;;;;;;;13.90;99.90;;;;;;5060275;28;19908;-59
2022/11/09 03:05:57;;;;;;;;;;;13.90;99.90;;;;;;5060413;28;19908;-59
2022/11/09 03:08:23;;;;;;;;;;;13.90;99.90;;;;;;5059965;28;20004;-59
2022/11/09 03:10:49;;;;;;;;;;;13.90;99.90;;;;;;5060467;28;20330;-59
2022/11/09 03:13:14;;;;;;;;;;;13.90;99.90;;;;;;5059714;28;19916;-59
2022/11/09 03:15:40;;;;;;;;;;;13.90;99.90;;;;;;5060055;28;19908;-59
2022/11/09 03:18:06;;;;;;;;;;;13.80;99.90;;;;;;5060075;28;19936;-59
2022/11/09 03:20:32;;;;;;;;;;;13.80;99.90;;;;;;5059994;28;19931;-59
2022/11/09 03:22:58;;;;;;;;;;;13.80;99.90;;;;;;5059790;28;19909;-59
2022/11/09 03:25:24;;;;;;;;;;;13.70;99.90;;;;;;5060056;28;19908;-59
2022/11/09 03:27:49;;;;;;;;;;;13.70;99.90;;;;;;5060246;28;19913;-59
2022/11/09 03:30:17;;;;;;;;;;;13.60;99.90;;;;;;5059955;28;19915;-59
2022/11/09 03:32:43;;;;;;;;;;;13.60;99.90;;;;;;5059986;28;19923;-59
2022/11/09 03:35:09;;;;;;;;;;;13.60;99.90;;;;;;5059704;28;20337;-59
2022/11/09 03:37:35;;;;;;;;;;;13.50;99.90;;;;;;5060073;28;20047;-59
2022/11/09 03:40:00;;;;;;;;;;;13.50;99.90;;;;;;5059626;28;19996;-59
2022/11/09 03:42:26;;;;;;;;;;;13.50;99.90;;;;;;5059495;28;19912;-59
2022/11/09 03:44:51;;;;;;;;;;;13.60;99.90;;;;;;5059904;28;19909;-59
2022/11/09 03:47:17;;;;;;;;;;;13.50;99.90;;;;;;5059353;28;19983;-59
2022/11/09 03:49:42;;;;;;;;;;;13.50;99.90;;;;;;5059655;28;19909;-59
2022/11/09 03:52:08;;;;;;;;;;;13.50;99.90;;;;;;5059460;28;20292;-60
2022/11/09 03:54:34;;;;;;;;;;;13.50;99.90;;;;;;5059176;28;19960;-59
2022/11/09 03:56:59;;;;;;;;;;;13.50;99.90;;;;;;5059353;28;19909;-59
2022/11/09 03:59:25;;;;;;;;;;;13.50;99.90;;;;;;5059493;28;19908;-60
2022/11/09 04:01:50;;;;;;;;;;;13.50;99.90;;;;;;5059266;28;20074;-59
2022/11/09 04:04:16;;;;;;;;;;;13.50;99.90;;;;;;5059330;28;20459;-59
2022/11/09 04:06:42;;;;;;;;;;;13.60;99.90;;;;;;5059361;28;19997;-59
2022/11/09 04:09:08;;;;;;;;;;;13.50;99.90;;;;;;5058877;28;19921;-59
2022/11/09 04:11:34;;;;;;;;;;;13.60;99.90;;;;;;5059211;28;19908;-60
2022/11/09 04:13:59;;;;;;;;;;;13.50;99.90;;;;;;5059023;28;20379;-60
2022/11/09 04:16:25;;;;;;;;;;;13.60;99.90;;;;;;5059207;28;19915;-60
2022/11/09 04:18:50;;;;;;;;;;;13.60;99.90;;;;;;5058757;28;20081;-59
2022/11/09 04:21:16;;;;;;;;;;;13.60;99.90;;;;;;5058735;28;20007;-59
2022/11/09 04:23:42;;;;;;;;;;;13.60;99.90;;;;;;5058761;28;19915;-59
2022/11/09 04:26:07;;;;;;;;;;;13.50;99.90;;;;;;5058301;28;19909;-60
2022/11/09 04:28:33;;;;;;;;;;;13.60;99.90;;;;;;5058619;28;19913;-59
2022/11/09 04:30:59;;;;;;;;;;;13.50;99.90;;;;;;5058364;28;19955;-59
2022/11/09 04:33:25;;;;;;;;;;;13.60;99.90;;;;;;5058623;28;19915;-59
2022/11/09 04:35:50;;;;;;;;;;;13.50;99.90;;;;;;5058288;28;20003;-60
2022/11/09 04:38:16;;;;;;;;;;;13.50;99.90;;;;;;5058702;28;19963;-59
2022/11/09 04:40:42;;;;;;;;;;;13.60;99.90;;;;;;5058651;28;19909;-59
2022/11/09 04:43:11;;;;;;;;;;;13.60;99.90;;;;;;5058509;28;19908;-59
2022/11/09 04:45:36;;;;;;;;;;;13.60;99.90;;;;;;5058629;28;19916;-59
2022/11/09 04:48:04;;;;;;;;;;;13.60;99.90;;;;;;5058280;28;19913;-59
2022/11/09 04:50:30;;;;;;;;;;;13.60;99.90;;;;;;5058267;28;20341;-59
2022/11/09 04:53:05;;;;;;;;;;;13.60;99.90;;;;;;5058738;28;19963;-59
2022/11/09 04:55:31;;;;;;;;;;;13.60;99.90;;;;;;5058234;28;19915;-59
2022/11/09 04:57:56;;;;;;;;;;;13.60;99.90;;;;;;5058650;28;19909;-59
2022/11/09 05:00:22;;;;;;;;;;;13.60;99.90;;;;;;5058141;28;19931;-59
2022/11/09 05:02:48;;;;;;;;;;;13.60;99.90;;;;;;5057936;28;19958;-60
2022/11/09 05:05:13;;;;;;;;;;;13.60;99.90;;;;;;5058450;28;20003;-60
2022/11/09 05:07:39;;;;;;;;;;;13.60;99.90;;;;;;5058310;28;19912;-59
2022/11/09 05:10:05;;;;;;;;;;;13.60;99.90;;;;;;5057729;28;19921;-60
2022/11/09 05:12:31;;;;;;;;;;;13.50;99.90;;;;;;5058509;28;19915;-59
2022/11/09 05:14:56;;;;;;;;;;;13.60;99.90;;;;;;5057937;28;20276;-60
2022/11/09 05:17:22;;;;;;;;;;;13.60;99.90;;;;;;5058372;28;19962;-59
2022/11/09 05:19:47;;;;;;;;;;;13.60;99.90;;;;;;5057998;28;19909;-59
2022/11/09 05:24:57;;;;;;;;;;;13.50;99.90;;;;;;5057922;28;19916;-59
2022/11/09 05:27:22;;;;;;;;;;;13.50;99.90;;;;;;5057690;28;20288;-60
2022/11/09 05:29:48;;;;;;;;;;;13.50;99.90;;;;;;5058009;28;19916;-59
2022/11/09 05:32:14;;;;;;;;;;;13.50;99.90;;;;;;5057712;28;19909;-60
2022/11/09 05:34:39;;;;;;;;;;;13.50;99.90;;;;;;5058068;28;19980;-59
2022/11/09 05:37:05;;;;;;;;;;;13.40;99.90;;;;;;5061050;28;19915;-60
2022/11/09 05:39:30;;;;;;;;;;;13.40;99.90;;;;;;5064540;28;19916;-60
2022/11/09 05:41:56;;;;;;;;;;;13.40;99.90;;;;;;5064304;28;19932;-60
2022/11/09 05:44:22;;;;;;;;;;;13.40;99.90;;;;;;5064380;28;20372;-59
2022/11/09 05:46:47;;;;;;;;;;;13.30;99.90;;;;;;5064352;28;19913;-60
2022/11/09 05:49:13;;;;;;;;;;;13.30;99.90;;;;;;5064408;28;19909;-59
2022/11/09 05:51:38;;;;;;;;;;;13.30;99.90;;;;;;5064267;28;19909;-59
2022/11/09 05:54:04;;;;;;;;;;;13.30;99.90;;;;;;5064694;28;20373;-60
2022/11/09 05:56:30;;;;;;;;;;;13.30;99.90;;;;;;5064323;28;19909;-59
2022/11/09 05:58:56;;;;;;;;;;;13.30;99.90;;;;;;5064619;28;19908;-59
2022/11/09 06:01:22;;;;;;;;;;;13.30;99.90;;;;;;5064369;28;19912;-59
2022/11/09 06:03:47;;;;;;;;;;;13.30;99.90;;;;;;5064366;28;19909;-60
2022/11/09 06:06:14;;;;;;;;;;;13.20;99.90;;;;;;5064054;28;19917;-59
2022/11/09 06:08:40;;;;;;;;;;;13.20;99.90;;;;;;5064053;28;19921;-60
2022/11/09 06:11:07;;;;;;;;;;;13.10;99.90;;;;;;5064293;28;20416;-59
2022/11/09 06:13:32;;;;;;;;;;;13.10;99.90;;;;;;5064364;28;19908;-59
2022/11/09 06:15:59;;;;;;;;;;;13.10;99.90;;;;;;5064045;28;19924;-60
2022/11/09 06:18:25;;;;;;;;;;;13.00;99.90;;;;;;5064368;28;20004;-60
2022/11/09 06:20:52;;;;;;;;;;;13.10;99.90;;;;;;5064200;28;19923;-60
2022/11/09 06:23:18;;;;;;;;;;;13.00;99.90;;;;;;5063819;28;19963;-59
2022/11/09 06:25:43;;;;;;;;;;;13.00;99.90;;;;;;5064051;28;19913;-59
2022/11/09 06:28:09;;;;;;;;;;;13.00;99.90;;;;;;5064121;28;19919;-59
2022/11/09 06:30:35;;;;;;;;;;;13.00;99.90;;;;;;5063904;28;19916;-60
2022/11/09 06:33:01;;;;;;;;;;;13.00;99.90;;;;;;5064225;28;19951;-60
2022/11/09 06:35:26;;;;;;;;;;;13.00;99.90;;;;;;5064093;28;20363;-59
2022/11/09 06:37:59;;;;;;;;;;;13.00;99.90;;;;;;5063919;28;20341;-60
2022/11/09 06:40:24;;;;;;;;;;;13.00;99.90;;;;;;5064000;28;19909;-60
2022/11/09 06:42:50;;;;;;;;;;;13.00;99.90;;;;;;5064256;28;20375;-59
2022/11/09 06:45:15;;;;;;;;;;;13.00;99.90;;;;;;5064001;28;20391;-60
2022/11/09 06:47:41;;;;;;;;;;;13.00;99.90;;;;;;5063498;28;19917;-60
2022/11/09 06:50:08;;;;;;;;;;;13.00;99.90;;;;;;5060543;28;19947;-59
2022/11/09 06:52:34;;;;;;;;;;;13.10;99.90;;;;;;5060488;28;19992;-60
2022/11/09 06:54:59;;;;;;;;;;;13.10;99.90;;;;;;5060963;28;19916;-59
2022/11/09 06:57:27;;;;;;;;;;;13.10;99.90;;;;;;5060482;28;19909;-59
2022/11/09 06:59:53;;;;;;;;;;;13.10;99.90;;;;;;5060602;28;19916;-59
2022/11/09 07:02:19;;;;;;;;;;;13.00;99.90;;;;;;5060562;28;19909;-59
2022/11/09 07:04:44;;;;;;;;;;;12.90;99.90;;;;;;5060481;28;19909;-59
2022/11/09 07:07:10;;;;;;;;;;;13.00;99.90;;;;;;5058909;28;19913;-59
2022/11/09 07:09:36;;;;;;;;;;;13.00;99.90;;;;;;5060295;28;19924;-59
2022/11/09 07:12:02;;;;;;;;;;;12.90;99.90;;;;;;5060386;28;19959;-60
2022/11/09 07:14:28;;;;;;;;;;;12.90;99.90;;;;;;5060249;28;20342;-59
2022/11/09 07:16:54;;;;;;;;;;;12.90;99.90;;;;;;5060341;28;19948;-59
2022/11/09 07:19:19;;;;;;;;;;;12.90;99.90;;;;;;5060278;28;19909;-59
2022/11/09 07:21:45;;;;;;;;;;;12.80;99.90;;;;;;5060083;28;19915;-59
2022/11/09 07:24:10;;;;;;;;;;;12.80;99.90;;;;;;5060003;28;19909;-59
2022/11/09 07:26:36;;;;;;;;;;;12.80;99.90;;;;;;5060236;28;19908;-60
2022/11/09 07:29:02;;;;;;;;;;;12.80;99.90;;;;;;5059932;28;20357;-59
2022/11/09 07:31:28;;;;;;;;;;;12.70;99.90;;;;;;5059886;28;19909;-59
2022/11/09 07:33:54;;;;;;;;;;;12.70;99.90;;;;;;5059569;28;19978;-60
2022/11/09 07:36:20;;;;;;;;;;;12.70;99.90;;;;;;5059963;28;19909;-60
2022/11/09 07:38:46;;;;;;;;;;;12.70;99.90;;;;;;5059928;28;19988;-59
2022/11/09 07:41:11;;;;;;;;;;;12.70;99.90;;;;;;5059561;28;20312;-59
2022/11/09 07:43:37;;;;;;;;;;;12.70;99.90;;;;;;5059793;28;19955;-60
2022/11/09 07:46:03;;;;;;;;;;;12.70;99.90;;;;;;5059783;28;19916;-60
2022/11/09 07:48:29;;;;;;;;;;;12.70;99.90;;;;;;5059774;28;19920;-59
2022/11/09 07:50:56;;;;;;;;;;;12.70;99.90;;;;;;5059763;28;20288;-60
2022/11/09 07:53:21;;;;;;;;;;;12.70;99.90;;;;;;5059525;28;19914;-60
2022/11/09 07:55:55;;;;;;;;;;;12.70;99.90;;;;;;5059363;28;19908;-60
2022/11/09 07:58:21;;;;;;;;;;;12.70;99.90;;;;;;5059570;28;19913;-60
2022/11/09 08:00:46;;;;;;;;;;;12.80;99.90;;;;;;5058944;28;19909;-59
2022/11/09 08:03:12;;;;;;;;;;;12.80;99.90;;;;;;5059796;28;19909;-60
2022/11/09 08:05:38;;;;;;;;;;;12.80;99.90;;;;;;5059433;28;19916;-60
2022/11/09 08:08:05;;;;;;;;;;;12.80;99.90;;;;;;5059575;28;19913;-59
2022/11/09 08:10:31;;;;;;;;;;;12.80;99.90;;;;;;5058748;28;19928;-60
2022/11/09 08:12:58;;;;;;;;;;;12.90;99.90;;;;;;5058979;28;19909;-60
2022/11/09 08:15:24;;;;;;;;;;;12.90;99.90;;;;;;5058956;28;19931;-60
2022/11/09 08:17:50;;;;;;;;;;;12.90;99.90;;;;;;5059465;28;20003;-60
2022/11/09 08:20:16;;;;;;;;;;;13.00;99.90;;;;;;5059118;28;19909;-60
2022/11/09 08:22:42;;;;;;;;;;;13.00;99.90;;;;;;5059094;28;20392;-60
2022/11/09 08:25:08;;;;;;;;;;;13.00;99.90;;;;;;5058982;28;20361;-59
2022/11/09 08:27:38;;;;;;;;;;;13.10;99.90;;;;;;5058717;28;19959;-60
2022/11/09 08:30:22;;;;;;;;;;;13.10;99.90;;;;;;5058747;28;19916;-60
2022/11/09 08:32:48;;;;;;;;;;;13.20;99.90;;;;;;5058714;28;19909;-60
2022/11/09 08:35:16;;;;;;;;;;;13.30;99.90;;;;;;5058826;28;20303;-60
2022/11/09 08:37:42;;;;;;;;;;;13.20;99.90;;;;;;5059035;28;19948;-59
2022/11/09 08:40:08;;;;;;;;;;;13.30;99.90;;;;;;5058525;28;20332;-59
2022/11/09 08:42:34;;;;;;;;;;;13.40;99.90;;;;;;5058573;28;19986;-59
2022/11/09 08:45:00;;;;;;;;;;;13.40;99.90;;;;;;5058477;28;19958;-59
2022/11/09 08:47:26;;;;;;;;;;;13.50;99.90;;;;;;5058625;28;19917;-60
2022/11/09 08:49:51;;;;;;;;;;;13.50;99.90;;;;;;5058340;28;19913;-60
2022/11/09 08:52:17;;;;;;;;;;;13.60;99.90;;;;;;5058495;28;19959;-60
2022/11/09 08:54:42;;;;;;;;;;;13.70;99.90;;;;;;5058246;28;19912;-60
2022/11/09 08:57:08;;;;;;;;;;;13.70;99.90;;;;;;5058091;28;20331;-60
2022/11/09 08:59:34;;;;;;;;;;;13.80;99.90;;;;;;5058433;28;19955;-60
2022/11/09 09:02:00;;;;;;;;;;;13.80;99.90;;;;;;5058336;28;19932;-59
2022/11/09 09:04:25;;;;;;;;;;;13.90;99.90;;;;;;5058215;28;19909;-60
2022/11/09 09:06:51;;;;;;;;;;;13.90;99.90;;;;;;5058401;28;19919;-59
2022/11/09 09:09:17;;;;;;;;;;;13.90;99.90;;;;;;5057884;28;19921;-60
2022/11/09 09:11:42;;;;;;;;;;;14.00;99.90;;;;;;5057548;28;19935;-59
2022/11/09 09:14:08;;;;;;;;;;;14.00;99.90;;;;;;5058154;28;19908;-59
2022/11/09 09:16:34;;;;;;;;;;;14.10;99.90;;;;;;5058420;28;19909;-60
2022/11/09 09:18:59;;;;;;;;;;;14.10;99.90;;;;;;5057993;28;19913;-59
2022/11/09 09:21:25;;;;;;;;;;;14.10;99.90;;;;;;5057909;28;19909;-59
2022/11/09 09:23:51;;;;;;;;;;;14.10;99.90;;;;;;5057949;28;19932;-60
2022/11/09 09:26:16;;;;;;;;;;;14.20;99.90;;;;;;5057748;28;19916;-59
2022/11/09 09:28:42;;;;;;;;;;;14.20;99.90;;;;;;5057528;28;19924;-60
2022/11/09 09:31:08;;;;;;;;;;;14.20;99.90;;;;;;5058160;28;19916;-60
2022/11/09 09:33:33;;;;;;;;;;;14.20;99.90;;;;;;5058071;28;19915;-59
2022/11/09 09:35:59;;;;;;;;;;;14.20;99.90;;;;;;5057752;28;19909;-60
2022/11/09 09:38:26;;;;;;;;;;;14.20;99.90;;;;;;5057755;28;19909;-60
2022/11/09 09:41:02;;;;;;;;;;;14.30;99.90;;;;;;5058061;28;20021;-60
2022/11/09 09:43:29;;;;;;;;;;;14.30;99.90;;;;;;5057891;28;19945;-59
2022/11/09 09:45:57;;;;;;;;;;;14.30;99.90;;;;;;5057624;28;20008;-60
2022/11/09 09:48:36;;;;;;;;;;;14.40;99.90;;;;;;5058030;28;19916;-59
2022/11/09 09:51:16;;;;;;;;;;;14.50;99.90;;;;;;5057692;28;19962;-59
2022/11/09 09:53:44;;;;;;;;;;;14.60;99.90;;;;;;5057572;28;19909;-60
2022/11/09 09:56:12;;;;;;;;;;;14.60;99.90;;;;;;5057326;28;20336;-59
2022/11/09 09:58:41;;;;;;;;;;;14.70;99.90;;;;;;5057464;28;20376;-60
2022/11/09 10:01:15;;;;;;;;;;;14.80;99.90;;;;;;5057314;28;19995;-59
2022/11/09 10:03:41;;;;;;;;;;;14.80;99.90;;;;;;5057429;28;20265;-60
2022/11/09 10:06:17;;;;;;;;;;;14.90;99.90;;;;;;5057631;28;19951;-59
2022/11/09 10:08:52;;;;;;;;;;;15.00;99.90;;;;;;5057497;28;19928;-60
2022/11/09 10:11:36;;;;;;;;;;;15.10;99.90;;;;;;5057814;28;19909;-60
2022/11/09 10:14:08;;;;;;;;;;;15.30;99.90;;;;;;5057352;28;20291;-60
2022/11/09 10:16:34;;;;;;;;;;;15.40;99.90;;;;;;5057416;28;20683;-59
2022/11/09 10:19:18;;;;;;;;;;;15.60;99.90;;;;;;5057542;28;19952;-59
2022/11/09 10:21:43;;;;;;;;;;;15.70;99.90;;;;;;5057422;28;19915;-59
2022/11/09 10:24:14;;;;;;;;;;;15.80;99.90;;;;;;5060090;28;20003;-59
2022/11/09 10:26:46;;;;;;;;;;;15.90;99.90;;;;;;5061054;28;19909;-59
2022/11/09 10:29:15;;;;;;;;;;;16.00;99.90;;;;;;5061036;28;19996;-59
2022/11/09 10:31:41;;;;;;;;;;;16.00;99.90;;;;;;5061226;28;20372;-59
2022/11/09 10:34:15;;;;;;;;;;;16.10;99.90;;;;;;5060947;28;19932;-59
2022/11/09 10:36:46;;;;;;;;;;;16.30;99.90;;;;;;5059430;28;19909;-59
2022/11/09 10:39:13;;;;;;;;;;;16.40;99.90;;;;;;5061043;28;19909;-59
2022/11/09 10:41:40;;;;;;;;;;;16.50;99.90;;;;;;5060971;28;19931;-59
2022/11/09 10:44:12;;;;;;;;;;;16.70;99.90;;;;;;5060940;28;19916;-59
2022/11/09 10:46:56;;;;;;;;;;;16.70;99.90;;;;;;5060813;28;19909;-59
2022/11/09 10:49:21;;;;;;;;;;;16.90;99.90;;;;;;5060929;28;19917;-59
2022/11/09 10:51:48;;;;;;;;;;;16.90;99.90;;;;;;5061034;28;19908;-59
2022/11/09 10:54:13;;;;;;;;;;;17.00;99.90;;;;;;5060641;28;19999;-59
2022/11/09 10:56:59;;;;;;;;;;;17.10;99.90;;;;;;5060737;28;19940;-59
2022/11/09 10:59:27;;;;;;;;;;;17.20;99.90;;;;;;5059897;28;19909;-60
2022/11/09 11:01:53;;;;;;;;;;;17.30;99.70;;;;;;5060656;28;19956;-59
2022/11/09 11:04:21;;;;;;;;;;;17.40;99.10;;;;;;5060615;28;19916;-59
2022/11/09 11:06:46;;;;;;;;;;;17.50;99.80;;;;;;5060235;28;19952;-59
2022/11/09 11:09:13;;;;;;;;;;;17.70;99.90;;;;;;5060310;28;19928;-59
2022/11/09 11:11:39;;;;;;;;;;;17.90;99.60;;;;;;5060394;28;19967;-59
2022/11/09 11:14:10;;;;;;;;;;;18.00;97.90;;;;;;5060393;28;19915;-59
2022/11/09 11:16:36;;;;;;;;;;;18.20;98.90;;;;;;5060466;28;19909;-59
2022/11/09 11:19:03;;;;;;;;;;;18.30;99.70;;;;;;5060082;28;19909;-59
2022/11/09 11:21:28;;;;;;;;;;;18.40;97.50;;;;;;5060217;28;19909;-59
2022/11/09 11:24:14;;;;;;;;;;;18.50;98.40;;;;;;5060205;28;20249;-59
2022/11/09 11:26:46;;;;;;;;;;;18.60;97.60;;;;;;5059543;28;20396;-59
2022/11/09 11:29:20;;;;;;;;;;;18.70;97.00;;;;;;5060166;28;20354;-59
2022/11/09 11:31:45;;;;;;;;;;;18.80;96.50;;;;;;5059589;28;19916;-59
2022/11/09 11:34:12;;;;;;;;;;;19.00;95.60;;;;;;5059669;28;19912;-59
2022/11/09 11:36:44;;;;;;;;;;;18.90;98.10;;;;;;5059526;28;19916;-59
2022/11/09 11:39:19;;;;;;;;;;;18.90;95.20;;;;;;5059729;28;19909;-59
2022/11/09 11:42:11;;;;;;;;;;;18.80;95.80;;;;;;5060144;28;19909;-58
2022/11/09 11:44:46;;;;;;;;;;;18.60;94.90;;;;;;5059799;28;20024;-59
2022/11/09 11:47:24;;;;;;;;;;;18.60;94.70;;;;;;5059599;28;19913;-59
2022/11/09 11:49:56;;;;;;;;;;;18.60;94.80;;;;;;5059495;28;19908;-59
2022/11/09 11:52:22;;;;;;;;;;;18.60;95.90;;;;;;5059658;28;20042;-59
2022/11/09 11:55:06;;;;;;;;;;;18.70;94.90;;;;;;5059475;28;19948;-59
2022/11/09 11:57:37;;;;;;;;;;;18.80;96.30;;;;;;5059549;28;19996;-59
2022/11/09 12:00:12;;;;;;;;;;;18.80;93.70;;;;;;5059303;28;20234;-59
2022/11/09 12:02:37;;;;;;;;;;;18.80;95.60;;;;;;5059459;28;19916;-59
2022/11/09 12:05:06;;;;;;;;;;;18.80;94.40;;;;;;5059288;28;20268;-59
2022/11/09 12:07:43;;;;;;;;;;;18.80;93.60;;;;;;5059294;28;19919;-59
2022/11/09 12:10:21;;;;;;;;;;;18.80;95.90;;;;;;5059027;28;19921;-59
2022/11/09 12:13:02;;;;;;;;;;;19.00;96.20;;;;;;5059554;28;19909;-59
2022/11/09 12:15:51;;;;;;;;;;;19.10;94.40;;;;;;5058934;28;20384;-59
2022/11/09 12:18:35;;;;;;;;;;;19.30;95.00;;;;;;5058496;28;19909;-59
2022/11/09 12:21:13;;;;;;;;;;;19.50;96.80;;;;;;5059148;28;19975;-59
2022/11/09 12:24:01;;;;;;;;;;;19.70;95.40;;;;;;5058911;28;20006;-59
2022/11/09 12:26:30;;;;;;;;;;;19.90;94.50;;;;;;5058178;28;19951;-59
2022/11/09 12:28:58;;;;;;;;;;;20.10;94.60;;;;;;5058837;28;19912;-59
2022/11/09 12:31:41;;;;;;;;;;;20.30;93.30;;;;;;5058958;28;19909;-58
2022/11/09 12:34:07;;;;;;;;;;;20.40;92.60;;;;;;5058944;28;19909;-59
2022/11/09 12:36:35;;;;;;;;;;;20.50;93.60;;;;;;5058644;28;19954;-59
2022/11/09 12:39:04;;;;;;;;;;;20.60;92.30;;;;;;5058764;28;19949;-59
2022/11/09 12:41:32;;;;;;;;;;;20.70;95.00;;;;;;5058489;28;20353;-59
2022/11/09 12:44:03;;;;;;;;;;;20.80;90.60;;;;;;5058734;28;19913;-59
2022/11/09 12:46:33;;;;;;;;;;;20.90;90.90;;;;;;5058328;28;20387;-59
2022/11/09 12:49:01;;;;;;;;;;;21.00;93.30;;;;;;5058581;28;19913;-59
2022/11/09 12:51:27;;;;;;;;;;;21.20;90.30;;;;;;5057863;28;19916;-59
2022/11/09 12:53:54;;;;;;;;;;;21.30;92.10;;;;;;5057835;28;19916;-59
2022/11/09 12:56:32;;;;;;;;;;;21.40;91.50;;;;;;5058145;28;19959;-59
2022/11/09 12:59:33;;;;;;;;;;;21.50;91.40;;;;;;5058073;28;19908;-59
2022/11/09 13:01:59;;;;;;;;;;;21.60;90.60;;;;;;5055918;28;19944;-59
2022/11/09 13:04:26;;;;;;;;;;;21.60;90.50;;;;;;5057446;28;19955;-59
2022/11/09 13:07:00;;;;;;;;;;;21.70;89.80;;;;;;5057672;28;19944;-58
2022/11/09 13:09:26;;;;;;;;;;;21.60;86.10;;;;;;5057984;28;19920;-59
2022/11/09 13:11:52;;;;;;;;;;;21.50;86.20;;;;;;5057816;28;19913;-59
2022/11/09 13:14:20;;;;;;;;;;;21.70;93.00;;;;;;5057955;28;20008;-58
2022/11/09 13:16:50;;;;;;;;;;;21.70;80.10;;;;;;5057984;28;19908;-59
2022/11/09 13:19:31;;;;;;;;;;;21.70;83.80;;;;;;5057988;28;19909;-59
2022/11/09 13:21:57;;;;;;;;;;;22.00;84.70;;;;;;5057662;28;19915;-59
2022/11/09 13:24:28;;;;;;;;;;;21.80;75.40;;;;;;5057941;28;20339;-59
2022/11/09 13:26:55;;;;;;;;;;;21.90;81.60;;;;;;5057580;28;19908;-58
2022/11/09 13:29:41;;;;;;;;;;;22.10;83.50;;;;;;5057973;28;19913;-58
2022/11/09 13:32:10;;;;;;;;;;;22.30;83.90;;;;;;5056884;28;19909;-59
2022/11/09 13:34:46;;;;;;;;;;;22.60;79.90;;;;;;5057495;28;19948;-58
2022/11/09 13:37:30;;;;;;;;;;;22.70;85.70;;;;;;5057599;28;20003;-59
2022/11/09 13:39:55;;;;;;;;;;;22.70;81.50;;;;;;5057984;28;20376;-59
2022/11/09 13:42:26;;;;;;;;;;;22.60;76.10;;;;;;5057829;28;19913;-58
2022/11/09 13:44:52;;;;;;;;;;;22.70;81.20;;;;;;5056244;28;19909;-59
2022/11/09 13:47:30;;;;;;;;;;;22.30;85.40;;;;;;5057617;28;19912;-58
2022/11/09 13:49:56;;;;;;;;;;;22.20;69.20;;;;;;5057678;28;19931;-59
2022/11/09 13:52:41;;;;;;;;;;;22.30;76.70;;;;;;5057810;28;20007;-59
2022/11/09 13:55:30;;;;;;;;;;;22.60;84.80;;;;;;5057442;28;19991;-59
2022/11/09 13:57:59;;;;;;;;;;;22.40;79.30;;;;;;5057881;28;19909;-58
2022/11/09 14:00:25;;;;;;;;;;;22.40;79.50;;;;;;5062042;28;20407;-58
2022/11/09 14:02:53;;;;;;;;;;;22.70;85.50;;;;;;5061435;28;19909;-58
2022/11/09 14:05:23;;;;;;;;;;;22.70;77.80;;;;;;5061289;28;20000;-58
2022/11/09 14:07:49;;;;;;;;;;;22.40;71.30;;;;;;5061314;28;19920;-58
2022/11/09 14:10:15;;;;;;;;;;;22.20;77.40;;;;;;5061229;28;19920;-58
2022/11/09 14:12:46;;;;;;;;;;;22.30;75.90;;;;;;5061506;28;19916;-58
2022/11/09 14:15:24;;;;;;;;;;;22.20;73.80;;;;;;5061606;28;19916;-58
2022/11/09 14:17:50;;;;;;;;;;;22.20;70.00;;;;;;5061427;28;19909;-58
2022/11/09 14:20:18;;;;;;;;;;;22.00;76.40;;;;;;5061291;28;20007;-58
2022/11/09 14:22:44;;;;;;;;;;;21.90;71.20;;;;;;5061339;28;20012;-59
2022/11/09 14:25:16;;;;;;;;;;;21.70;72.30;;;;;;5060836;28;19948;-58